Terminal Aerodrome Forecast
Issued by NWS Tulsa, OK

Home | Current Version | Previous Version | Text Only | Print | Product List | Glossary On
Versions: 1 2 3 4 5 6 7 8 9 10 11 12 13 14 15 16 17 18
000
FTUS44 KTSA 180000 AAB
TAFFSM
TAF AMD
KFSM 180056Z 1801/1824 08003KT P6SM VCTS BKN040CB BKN250
      TEMPO 1801/1804 VRB30KT 3SM TSRA BR OVC025CB
     FM180400 08003KT P6SM BKN040
     FM181200 VRB03KT 5SM BR VCTS SCT020CB BKN040
     FM181700 12005KT P6SM BKN040=

USA.gov is the U.S. government's official web portal to all federal, state and local government web resources and services.